createdAt,value
2022-09-28T00:01:26.407Z,80.73
2022-09-28T00:03:57.493Z,80.94
2022-09-28T00:06:28.640Z,80.82
2022-09-28T00:08:57.945Z,81.01
2022-09-28T00:11:28.099Z,80.88
2022-09-28T00:14:02.347Z,80.89
2022-09-28T00:16:33.793Z,80.76
2022-09-28T00:19:03.059Z,80.61
2022-09-28T00:21:34.179Z,80.43
2022-09-28T00:24:15.130Z,80.44
2022-09-28T00:26:47.724Z,80.34
2022-09-28T00:29:24.423Z,80.59
2022-09-28T00:31:57.273Z,80.86
2022-09-28T00:34:25.541Z,80.87
2022-09-28T00:36:53.806Z,80.98
2022-09-28T00:39:22.044Z,80.81
2022-09-28T00:41:50.298Z,80.97
2022-09-28T00:44:44.482Z,81.64
2022-09-28T00:47:39.569Z,81.97
2022-09-28T00:50:16.376Z,82.53
2022-09-28T00:52:50.003Z,82.63
2022-09-28T00:55:24.991Z,83.26
2022-09-28T00:57:58.381Z,83.36
2022-09-28T01:00:28.977Z,83.07
2022-09-28T01:02:57.952Z,82.95
2022-09-28T01:05:26.915Z,82.72
2022-09-28T01:07:58.048Z,82.53
2022-09-28T01:10:26.882Z,82.78
2022-09-28T01:12:56.398Z,82.99
2022-09-28T01:15:29.029Z,83.08
2022-09-28T01:18:11.660Z,83.49
2022-09-28T01:21:05.439Z,83.52
2022-09-28T01:24:26.754Z,83.00
2022-09-28T01:27:07.328Z,82.60
2022-09-28T01:29:52.350Z,81.52
2022-09-28T01:32:33.220Z,81.52
2022-09-28T01:35:07.827Z,81.30
2022-09-28T01:37:44.976Z,81.47
2022-09-28T01:40:15.631Z,81.46
2022-09-28T01:42:48.356Z,81.20
2022-09-28T01:45:24.168Z,81.30
2022-09-28T01:47:55.312Z,81.11
2022-09-28T01:50:26.959Z,81.05
2022-09-28T01:53:00.719Z,80.64
2022-09-28T01:55:34.029Z,80.65
2022-09-28T01:58:12.968Z,80.72
2022-09-28T02:00:47.071Z,80.62
2022-09-28T02:03:21.730Z,80.45
2022-09-28T02:06:00.678Z,80.48
2022-09-28T02:08:34.603Z,80.46
2022-09-28T02:11:10.739Z,80.13
2022-09-28T02:13:44.250Z,80.35
2022-09-28T02:16:21.023Z,80.22
2022-09-28T02:18:51.710Z,80.14
2022-09-28T02:21:27.914Z,80.16
2022-09-28T02:24:01.056Z,80.13
2022-09-28T02:26:33.575Z,80.39
2022-09-28T02:29:03.463Z,80.31
2022-09-28T02:31:32.939Z,80.54
2022-09-28T02:34:01.726Z,80.54
2022-09-28T02:36:31.863Z,80.46
2022-09-28T02:39:01.200Z,80.32
2022-09-28T02:41:43.344Z,80.63
2022-09-28T02:44:31.703Z,80.48
2022-09-28T02:47:06.376Z,80.33
2022-09-28T02:49:45.652Z,80.46
2022-09-28T02:52:33.946Z,80.50
2022-09-28T02:55:21.282Z,80.59
2022-09-28T02:58:12.218Z,80.50
2022-09-28T03:00:48.174Z,80.62
2022-09-28T03:03:23.408Z,80.78
2022-09-28T03:06:01.343Z,80.64
2022-09-28T03:08:40.409Z,80.95
2022-09-28T03:11:17.902Z,80.85
2022-09-28T03:13:49.577Z,80.72
2022-09-28T03:16:21.669Z,80.87
2022-09-28T03:18:51.171Z,80.84
2022-09-28T03:21:19.656Z,80.84
2022-09-28T03:23:48.376Z,80.92
2022-09-28T03:26:19.918Z,80.54
2022-09-28T03:28:48.296Z,80.63
2022-09-28T03:31:24.586Z,80.88
2022-09-28T03:33:53.337Z,81.08
2022-09-28T03:36:21.557Z,80.85
2022-09-28T03:38:53.230Z,80.17
2022-09-28T03:41:21.538Z,80.06
2022-09-28T03:43:49.875Z,80.32
2022-09-28T03:46:18.424Z,80.19
2022-09-28T03:48:52.453Z,80.35
2022-09-28T03:51:20.742Z,80.45
2022-09-28T03:53:49.024Z,80.41
2022-09-28T03:56:17.830Z,80.32
2022-09-28T03:58:46.171Z,80.92
2022-09-28T04:01:17.910Z,80.73
2022-09-28T04:03:49.082Z,80.85
2022-09-28T04:06:19.287Z,81.39
2022-09-28T04:08:47.587Z,81.39
2022-09-28T04:11:15.885Z,81.67
2022-09-28T04:13:44.635Z,81.77
2022-09-28T04:16:15.839Z,81.85
2022-09-28T04:18:50.097Z,81.98
2022-09-28T04:21:38.855Z,82.00
2022-09-28T04:24:14.395Z,82.63
2022-09-28T04:26:42.832Z,82.68
2022-09-28T04:29:18.927Z,82.42
2022-09-28T04:31:56.820Z,82.67
2022-09-28T04:34:36.513Z,82.55
2022-09-28T04:37:08.100Z,82.49
2022-09-28T04:39:36.540Z,82.40
2022-09-28T04:42:05.576Z,82.20
2022-09-28T04:44:33.915Z,82.26
2022-09-28T04:47:08.049Z,81.96
2022-09-28T04:49:58.012Z,81.54
2022-09-28T04:52:38.788Z,81.36
2022-09-28T04:55:10.391Z,81.20
2022-09-28T04:57:38.843Z,81.15
2022-09-28T05:00:09.579Z,80.67
2022-09-28T05:02:39.305Z,80.75
2022-09-28T05:05:26.665Z,80.52
2022-09-28T05:08:30.894Z,80.63
2022-09-28T05:11:00.538Z,80.19
2022-09-28T05:13:31.746Z,79.86
2022-09-28T05:16:04.977Z,79.79
2022-09-28T05:18:38.126Z,79.59
2022-09-28T05:21:12.766Z,79.47
2022-09-28T05:23:47.641Z,79.67
2022-09-28T05:26:16.270Z,79.66
2022-09-28T05:28:45.299Z,79.44
2022-09-28T05:31:36.849Z,79.51
2022-09-28T05:34:11.238Z,79.47
2022-09-28T05:36:40.286Z,79.38
2022-09-28T05:39:10.679Z,79.64
2022-09-28T05:41:39.234Z,79.94
2022-09-28T05:44:07.512Z,79.85
2022-09-28T05:46:37.341Z,80.50
2022-09-28T05:49:05.806Z,81.31
2022-09-28T05:51:34.310Z,81.22
2022-09-28T05:54:06.013Z,80.80
2022-09-28T05:56:38.822Z,80.62
2022-09-28T05:59:09.000Z,80.61
2022-09-28T06:01:38.431Z,81.97
2022-09-28T06:04:10.105Z,83.12
2022-09-28T06:06:38.876Z,82.86
2022-09-28T06:09:07.180Z,83.09
2022-09-28T06:11:45.488Z,83.29
2022-09-28T06:14:25.213Z,84.04
2022-09-28T06:16:54.584Z,83.69
2022-09-28T06:19:23.862Z,83.41
2022-09-28T06:22:07.691Z,83.25
2022-09-28T06:24:44.246Z,83.91
2022-09-28T06:27:13.951Z,84.49
2022-09-28T06:29:42.335Z,85.43
2022-09-28T06:32:12.410Z,85.17
2022-09-28T06:34:42.064Z,85.41
2022-09-28T06:37:10.788Z,84.52
2022-09-28T06:39:39.123Z,83.93
2022-09-28T06:42:07.529Z,82.93
2022-09-28T06:45:07.936Z,80.38
2022-09-28T06:48:06.241Z,79.93
2022-09-28T06:50:42.440Z,79.19
2022-09-28T06:53:27.220Z,77.40
2022-09-28T06:56:02.522Z,76.36
2022-09-28T06:58:31.560Z,75.88
2022-09-28T07:01:02.326Z,75.38
2022-09-28T07:03:36.826Z,75.05
2022-09-28T07:06:48.641Z,74.58
2022-09-28T07:09:39.739Z,74.51
2022-09-28T07:12:13.369Z,74.61
2022-09-28T07:15:05.924Z,74.86
2022-09-28T07:17:48.181Z,75.44
2022-09-28T07:20:25.069Z,76.45
2022-09-28T07:22:55.551Z,77.06
2022-09-28T07:25:26.075Z,77.42
2022-09-28T07:28:09.551Z,78.50
2022-09-28T07:31:04.327Z,78.53
2022-09-28T07:33:52.186Z,78.91
2022-09-28T07:36:29.911Z,78.82
2022-09-28T07:38:59.131Z,77.77
2022-09-28T07:41:32.568Z,76.44
2022-09-28T07:44:06.447Z,75.31
2022-09-28T07:46:37.774Z,74.68
2022-09-28T07:49:12.982Z,74.16
2022-09-28T07:51:56.451Z,74.06
2022-09-28T07:54:39.505Z,73.93
2022-09-28T07:57:34.797Z,74.35
2022-09-28T08:00:17.886Z,74.95
2022-09-28T08:02:49.044Z,75.45
2022-09-28T08:05:27.058Z,74.89
2022-09-28T08:07:57.794Z,73.77
2022-09-28T08:10:28.520Z,73.88
2022-09-28T08:13:16.407Z,73.25
2022-09-28T08:16:02.165Z,73.43
2022-09-28T08:18:39.741Z,73.69
2022-09-28T08:21:29.223Z,73.74
2022-09-28T08:23:58.109Z,74.99
2022-09-28T08:26:26.658Z,74.99
2022-09-28T08:28:55.009Z,73.76
2022-09-28T08:31:43.504Z,73.11
2022-09-28T08:34:22.721Z,73.52
2022-09-28T08:37:11.105Z,71.47
2022-09-28T08:39:57.819Z,70.14
2022-09-28T08:42:52.146Z,69.45
2022-09-28T08:45:34.994Z,69.77
2022-09-28T08:48:33.737Z,69.27
2022-09-28T08:51:24.301Z,69.10
2022-09-28T08:54:36.080Z,68.59
2022-09-28T08:57:12.543Z,68.97
2022-09-28T08:59:51.261Z,69.45
2022-09-28T09:02:31.306Z,68.95
2022-09-28T09:05:14.820Z,68.84
2022-09-28T09:08:21.291Z,69.56
2022-09-28T09:10:54.615Z,69.61
2022-09-28T09:14:06.129Z,68.05
2022-09-28T09:16:47.754Z,66.21
2022-09-28T09:19:51.212Z,64.76
2022-09-28T09:22:40.766Z,63.85
2022-09-28T09:25:20.854Z,64.08
2022-09-28T09:28:20.491Z,61.83
2022-09-28T09:31:00.320Z,60.81
2022-09-28T09:33:54.225Z,61.68
2022-09-28T09:37:05.814Z,61.49
2022-09-28T09:40:07.445Z,61.60
2022-09-28T09:43:08.379Z,62.46
2022-09-28T09:46:04.457Z,63.56
2022-09-28T09:48:57.320Z,62.96
2022-09-28T09:51:38.921Z,62.08
2022-09-28T09:54:17.877Z,62.05
2022-09-28T09:56:54.843Z,64.19
2022-09-28T09:59:46.974Z,63.42
2022-09-28T10:02:26.794Z,63.61
2022-09-28T10:05:18.132Z,64.41
2022-09-28T10:07:55.000Z,62.41
2022-09-28T10:10:29.968Z,60.97
2022-09-28T10:13:11.290Z,61.83
2022-09-28T10:15:42.584Z,62.18
2022-09-28T10:18:22.237Z,62.18
2022-09-28T10:21:14.765Z,60.51
2022-09-28T10:24:03.706Z,60.05
2022-09-28T10:26:37.103Z,59.82
2022-09-28T10:29:13.121Z,60.00
2022-09-28T10:31:46.392Z,60.20
2022-09-28T10:34:36.508Z,60.75
2022-09-28T10:37:12.518Z,61.24
2022-09-28T10:40:01.635Z,61.36
2022-09-28T10:42:36.166Z,61.83
2022-09-28T10:45:21.628Z,62.07
2022-09-28T10:47:51.792Z,64.38
2022-09-28T10:50:23.935Z,64.36
2022-09-28T10:53:15.882Z,64.06
2022-09-28T10:56:22.654Z,62.40
2022-09-28T10:58:58.015Z,61.93
2022-09-28T11:01:46.054Z,60.08
2022-09-28T11:04:23.485Z,58.17
2022-09-28T11:06:52.475Z,57.73
2022-09-28T11:09:30.703Z,56.60
2022-09-28T11:12:06.835Z,55.98
2022-09-28T11:14:42.441Z,55.73
2022-09-28T11:17:27.842Z,54.28
2022-09-28T11:20:00.438Z,53.60
2022-09-28T11:22:41.799Z,53.76
2022-09-28T11:25:24.470Z,52.96
2022-09-28T11:28:04.870Z,53.09
2022-09-28T11:30:40.517Z,53.48
2022-09-28T11:33:33.576Z,53.02
2022-09-28T11:36:43.082Z,52.16
2022-09-28T11:39:18.363Z,54.48
2022-09-28T11:42:06.059Z,53.07
2022-09-28T11:44:44.617Z,50.89
2022-09-28T11:47:52.610Z,50.73
2022-09-28T11:50:43.636Z,51.90
2022-09-28T11:53:23.348Z,50.78
2022-09-28T11:56:08.571Z,50.65
2022-09-28T11:58:42.199Z,50.76
2022-09-28T12:01:31.248Z,51.70
2022-09-28T12:04:26.572Z,51.76
2022-09-28T12:07:00.316Z,53.33
2022-09-28T12:09:39.078Z,54.62
2022-09-28T12:12:24.637Z,55.95
2022-09-28T12:14:58.604Z,57.06
2022-09-28T12:17:33.666Z,58.13
2022-09-28T12:20:12.583Z,58.77
2022-09-28T12:22:47.660Z,59.26
2022-09-28T12:25:21.417Z,59.71
2022-09-28T12:27:55.077Z,59.96
2022-09-28T12:30:25.675Z,60.51
2022-09-28T12:32:57.306Z,61.08
2022-09-28T12:35:55.211Z,61.25
2022-09-28T12:39:08.468Z,61.10
2022-09-28T12:41:53.308Z,61.29
2022-09-28T12:44:48.295Z,61.75
2022-09-28T12:47:50.022Z,62.62
2022-09-28T12:50:45.611Z,63.25
2022-09-28T12:53:45.564Z,63.45
2022-09-28T12:56:25.298Z,64.62
2022-09-28T12:59:10.406Z,64.10
2022-09-28T13:02:23.101Z,64.73
2022-09-28T13:05:40.919Z,65.86
2022-09-28T13:08:15.880Z,66.56
2022-09-28T13:10:55.192Z,67.35
2022-09-28T13:13:41.419Z,68.14
2022-09-28T13:16:23.445Z,68.49
2022-09-28T13:19:02.577Z,69.61
2022-09-28T13:21:37.793Z,68.83
2022-09-28T13:24:30.939Z,69.31
2022-09-28T13:27:05.455Z,68.47
2022-09-28T13:29:35.048Z,67.54
2022-09-28T13:32:05.455Z,66.82
2022-09-28T13:34:36.287Z,67.28
2022-09-28T13:37:26.592Z,66.76
2022-09-28T13:39:56.831Z,67.44
2022-09-28T13:42:51.042Z,67.58
2022-09-28T13:45:51.664Z,66.89
2022-09-28T13:48:24.316Z,66.25
2022-09-28T13:51:25.868Z,66.25
2022-09-28T13:54:25.680Z,66.32
2022-09-28T13:57:04.501Z,66.75
2022-09-28T13:59:35.854Z,67.46
2022-09-28T14:02:18.783Z,67.79
2022-09-28T14:04:59.963Z,68.42
2022-09-28T14:07:57.558Z,68.99
2022-09-28T14:10:48.840Z,69.24
2022-09-28T14:13:59.071Z,69.51
2022-09-28T14:16:31.147Z,69.43
2022-09-28T14:19:04.865Z,69.36
2022-09-28T14:22:04.312Z,69.03
2022-09-28T14:25:04.453Z,68.99
2022-09-28T14:28:02.911Z,68.67
2022-09-28T14:30:48.848Z,68.16
2022-09-28T14:33:25.683Z,67.55
2022-09-28T14:35:57.448Z,67.54
2022-09-28T14:38:51.172Z,67.33
2022-09-28T14:41:33.725Z,67.20
2022-09-28T14:44:08.019Z,67.36
2022-09-28T14:46:45.631Z,67.73
2022-09-28T14:49:48.962Z,68.05
2022-09-28T14:52:38.939Z,68.47
2022-09-28T14:55:16.885Z,68.62
2022-09-28T14:57:45.695Z,68.74
2022-09-28T15:00:22.843Z,68.99
2022-09-28T15:02:53.482Z,69.15
2022-09-28T15:05:25.931Z,69.28
2022-09-28T15:07:56.106Z,69.39
2022-09-28T15:10:33.006Z,69.42
2022-09-28T15:13:05.367Z,69.40
2022-09-28T15:15:38.226Z,69.57
2022-09-28T15:18:35.225Z,69.63
2022-09-28T15:21:04.147Z,69.70
2022-09-28T15:23:37.429Z,69.60
2022-09-28T15:26:09.157Z,69.54
2022-09-28T15:28:44.765Z,69.40
2022-09-28T15:31:20.491Z,69.39
2022-09-28T15:34:06.673Z,69.42
2022-09-28T15:36:38.936Z,69.28
2022-09-28T15:39:14.208Z,69.26
2022-09-28T15:41:45.161Z,68.88
2022-09-28T15:44:30.175Z,68.74
2022-09-28T15:47:12.865Z,68.87
2022-09-28T15:49:45.026Z,68.73
2022-09-28T15:52:33.885Z,68.67
2022-09-28T15:55:05.287Z,68.95
2022-09-28T15:57:38.661Z,68.99
2022-09-28T16:00:25.723Z,68.92
2022-09-28T16:03:20.423Z,69.07
2022-09-28T16:05:51.873Z,69.11
2022-09-28T16:08:24.815Z,68.71
2022-09-28T16:10:59.340Z,68.16
2022-09-28T16:13:29.228Z,67.61
2022-09-28T16:16:00.550Z,67.16
2022-09-28T16:18:30.904Z,66.77
2022-09-28T16:21:27.074Z,66.22
2022-09-28T16:23:57.631Z,65.86
2022-09-28T16:26:35.913Z,65.23
2022-09-28T16:29:25.758Z,64.82
2022-09-28T16:31:54.423Z,64.58
2022-09-28T16:34:27.309Z,64.71
2022-09-28T16:36:55.911Z,65.04
2022-09-28T16:39:24.952Z,65.52
2022-09-28T16:41:57.145Z,65.63
2022-09-28T16:44:30.690Z,66.56
2022-09-28T16:47:00.997Z,66.78
2022-09-28T16:49:32.176Z,66.94
2022-09-28T16:52:01.906Z,66.58
2022-09-28T16:54:48.286Z,66.63
2022-09-28T16:57:17.133Z,66.39
2022-09-28T16:59:46.932Z,66.15
2022-09-28T17:02:46.138Z,66.12
2022-09-28T17:05:11.155Z,65.75
2022-09-28T17:07:39.938Z,66.22
2022-09-28T17:10:18.363Z,66.60
2022-09-28T17:12:47.290Z,67.16
2022-09-28T17:15:19.409Z,67.84
2022-09-28T17:17:48.039Z,67.92
2022-09-28T17:20:22.375Z,67.39
2022-09-28T17:22:50.764Z,67.80
2022-09-28T17:25:19.948Z,68.90
2022-09-28T17:27:50.481Z,69.85
2022-09-28T17:30:23.825Z,70.60
2022-09-28T17:32:54.219Z,70.57
2022-09-28T17:35:25.090Z,70.62
2022-09-28T17:37:54.301Z,71.24
2022-09-28T17:40:25.536Z,71.12
2022-09-28T17:42:55.201Z,71.32
2022-09-28T17:45:26.930Z,71.68
2022-09-28T17:47:56.600Z,72.06
2022-09-28T17:50:28.103Z,72.31
2022-09-28T17:52:59.801Z,72.27
2022-09-28T17:55:31.536Z,71.82
2022-09-28T17:58:01.585Z,71.75
2022-09-28T18:00:31.234Z,72.36
2022-09-28T18:03:00.001Z,72.90
2022-09-28T18:05:30.393Z,72.91
2022-09-28T18:07:59.291Z,72.44
2022-09-28T18:10:30.192Z,72.78
2022-09-28T18:12:58.535Z,73.02
2022-09-28T18:15:27.107Z,73.03
2022-09-28T18:17:56.989Z,73.42
2022-09-28T18:20:25.401Z,73.24
2022-09-28T18:22:53.867Z,73.33
2022-09-28T18:25:22.375Z,73.28
2022-09-28T18:27:50.871Z,72.90
2022-09-28T18:30:19.694Z,73.12
2022-09-28T18:32:48.195Z,73.00
2022-09-28T18:35:22.592Z,73.01
2022-09-28T18:37:51.928Z,73.74
2022-09-28T18:40:20.609Z,74.04
2022-09-28T18:42:51.890Z,73.76
2022-09-28T18:45:20.655Z,73.53
2022-09-28T18:47:49.052Z,73.64
2022-09-28T18:50:19.143Z,73.59
2022-09-28T18:52:48.278Z,74.06
2022-09-28T18:55:16.860Z,74.00
2022-09-28T18:57:46.878Z,74.14
2022-09-28T19:00:16.513Z,73.75
2022-09-28T19:02:44.931Z,73.87
2022-09-28T19:05:13.314Z,73.85
2022-09-28T19:07:43.199Z,74.03
2022-09-28T19:10:11.743Z,73.78
2022-09-28T19:12:40.071Z,74.08
2022-09-28T19:15:09.683Z,74.59
2022-09-28T19:17:38.157Z,74.65
2022-09-28T19:20:08.092Z,74.99
2022-09-28T19:22:36.430Z,75.36
2022-09-28T19:25:07.026Z,75.45
2022-09-28T19:27:35.465Z,75.21
2022-09-28T19:30:04.467Z,75.19
2022-09-28T19:32:32.890Z,74.98
2022-09-28T19:35:01.963Z,75.14
2022-09-28T19:37:30.444Z,75.11
2022-09-28T19:39:58.903Z,75.62
2022-09-28T19:42:28.632Z,75.83
2022-09-28T19:44:57.011Z,76.31
2022-09-28T19:47:25.520Z,76.99
2022-09-28T19:49:53.894Z,77.08
2022-09-28T19:52:22.323Z,77.10
2022-09-28T19:54:56.529Z,77.64
2022-09-28T19:57:27.669Z,77.55
2022-09-28T20:00:02.126Z,77.25
2022-09-28T20:02:34.491Z,77.21
2022-09-28T20:05:03.310Z,76.94
2022-09-28T20:07:33.401Z,77.13
2022-09-28T20:10:02.026Z,77.68
2022-09-28T20:12:30.408Z,78.22
2022-09-28T20:15:00.187Z,79.05
2022-09-28T20:17:28.956Z,79.37
2022-09-28T20:19:57.705Z,79.38
2022-09-28T20:22:26.150Z,79.59
2022-09-28T20:24:54.441Z,78.91
2022-09-28T20:27:26.377Z,79.29
2022-09-28T20:29:54.888Z,79.02
2022-09-28T20:32:24.684Z,78.71
2022-09-28T20:34:53.034Z,78.38
2022-09-28T20:37:21.442Z,78.13
2022-09-28T20:39:50.311Z,77.97
2022-09-28T20:42:19.115Z,78.14
2022-09-28T20:44:47.456Z,78.11
2022-09-28T20:47:15.877Z,78.18
2022-09-28T20:49:46.406Z,78.21
2022-09-28T20:52:15.537Z,78.35
2022-09-28T20:54:43.982Z,78.18
2022-09-28T20:57:18.356Z,77.86
2022-09-28T20:59:49.757Z,78.02
2022-09-28T21:02:20.691Z,78.97
2022-09-28T21:04:50.423Z,79.22
2022-09-28T21:07:19.011Z,79.85
2022-09-28T21:09:47.380Z,80.05
2022-09-28T21:12:16.420Z,80.06
2022-09-28T21:14:44.801Z,80.55
2022-09-28T21:17:13.203Z,80.63
2022-09-28T21:19:41.540Z,80.40
2022-09-28T21:22:11.318Z,80.13
2022-09-28T21:24:39.715Z,79.78
2022-09-28T21:27:08.068Z,79.71
2022-09-28T21:29:36.436Z,79.35
2022-09-28T21:32:06.042Z,79.17
2022-09-28T21:34:35.806Z,79.59
2022-09-28T21:37:04.354Z,79.74
2022-09-28T21:39:34.146Z,79.63
2022-09-28T21:42:02.537Z,79.54
2022-09-28T21:44:31.010Z,79.68
2022-09-28T21:46:59.380Z,79.49
2022-09-28T21:49:27.693Z,79.47
2022-09-28T21:51:56.050Z,79.11
2022-09-28T21:54:24.335Z,79.55
2022-09-28T21:56:54.034Z,79.35
2022-09-28T21:59:22.410Z,79.15
2022-09-28T22:01:50.884Z,79.47
2022-09-28T22:04:19.257Z,79.95
2022-09-28T22:06:47.754Z,80.11
2022-09-28T22:09:16.047Z,79.47
2022-09-28T22:11:44.514Z,79.52
2022-09-28T22:14:14.564Z,79.00
2022-09-28T22:16:43.320Z,78.81
2022-09-28T22:19:11.618Z,78.58
2022-09-28T22:21:40.172Z,78.33
2022-09-28T22:24:08.839Z,77.50
2022-09-28T22:26:39.539Z,77.90
2022-09-28T22:29:09.499Z,77.96
2022-09-28T22:31:41.469Z,77.84
2022-09-28T22:34:11.187Z,77.89
2022-09-28T22:36:39.576Z,77.71
2022-09-28T22:39:08.236Z,77.80
2022-09-28T22:41:36.528Z,78.00
2022-09-28T22:44:05.011Z,77.94
2022-09-28T22:46:33.393Z,77.83
2022-09-28T22:49:03.492Z,78.44
2022-09-28T22:51:32.102Z,78.47
2022-09-28T22:54:01.209Z,78.49
2022-09-28T22:56:30.095Z,78.54
2022-09-28T22:58:58.822Z,79.00
2022-09-28T23:01:29.693Z,81.20
2022-09-28T23:03:59.467Z,81.64
2022-09-28T23:06:30.867Z,81.52
2022-09-28T23:08:59.326Z,81.34
2022-09-28T23:11:28.035Z,80.94
2022-09-28T23:13:59.017Z,80.55
2022-09-28T23:16:28.361Z,80.35
2022-09-28T23:18:57.482Z,79.47
2022-09-28T23:21:29.349Z,78.84
2022-09-28T23:24:01.039Z,80.70
2022-09-28T23:26:31.445Z,81.01
2022-09-28T23:29:00.660Z,80.81
2022-09-28T23:31:31.234Z,80.75
2022-09-28T23:34:01.090Z,80.78
2022-09-28T23:36:31.062Z,81.42
2022-09-28T23:38:59.695Z,81.91
2022-09-28T23:41:28.168Z,81.90
2022-09-28T23:43:56.719Z,81.97
2022-09-28T23:46:25.536Z,81.97
2022-09-28T23:48:54.027Z,82.00
2022-09-28T23:51:22.368Z,81.90
2022-09-28T23:53:52.121Z,81.87
2022-09-28T23:56:21.002Z,82.04
2022-09-28T23:58:49.288Z,81.99
